St Solene — FVDG — position and weather

sailwx.info

Track history (hours):
 
Tides and Currents Weather Stations Pressure Air Temp Water Temp Dewpoint Dewpoint Depression Visibility Wind Speed Wind Dir Waves Ship Positions

St Solene

Last reported at 2015-Feb-01 20:13 UTC. Time now 2015-Feb-01 21:12 UTC.
Position N 43°01' E 003°07'.

Length 104 m; draft 6.6 m.

Type: Tanker. MMSI: 226302000.

Date/timePositionNaut miles runAvg speedWind from/ knotsBaromVisibWave heightAir tempDewpointWater temp
2015-Feb-01 20:13N 43°01' E 003°07'0 0.0
2015-Feb-01 19:25N 43°01' E 003°07'0 0.0
2015-Feb-01 18:21N 43°01' E 003°07'0 0.0
2015-Feb-01 17:31N 43°01' E 003°07'0 0.0
2015-Feb-01 16:26N 43°01' E 003°07'0 0.0
2015-Feb-01 15:34N 43°01' E 003°07'0 0.0
2015-Feb-01 14:14N 43°01' E 003°07'0 0.0
2015-Feb-01 13:17N 43°01' E 003°07'0 0.0
2015-Feb-01 12:28N 43°01' E 003°07'0 0.0
2015-Feb-01 11:29N 43°01' E 003°07'0 0.0
2015-Feb-01 10:13N 43°01' E 003°07'3 1.5
2015-Feb-01 08:13N 42°60' E 003°11'6910.2
2015-Feb-01 01:27N 43°10' E 004°44'910.1
2015-Feb-01 00:31N 43°11' E 004°57'8 8.1
2015-Jan-31 23:34N 43°19' E 004°59'8 7.9
2015-Jan-31 22:33N 43°26' E 004°54'0 0.1
2015-Jan-31 21:33N 43°26' E 004°54'0 0.0
2015-Jan-31 20:33N 43°26' E 004°54'0 0.0
2015-Jan-31 19:33N 43°26' E 004°54'0 0.0
2015-Jan-31 18:33N 43°26' E 004°54'0 0.0
2015-Jan-31 17:30N 43°26' E 004°54'0 0.0
2015-Jan-31 16:33N 43°26' E 004°54'0 0.0
2015-Jan-31 15:30N 43°26' E 004°54'0 0.0
2015-Jan-31 14:33N 43°26' E 004°54'0 0.0
2015-Jan-31 13:33N 43°26' E 004°54'0 0.0
2015-Jan-31 12:33N 43°26' E 004°54'0 0.0
2015-Jan-31 11:33N 43°26' E 004°54'0 0.0
2015-Jan-31 10:33N 43°26' E 004°54'0 0.0
2015-Jan-31 09:33N 43°26' E 004°54'0 0.0
2015-Jan-31 08:30N 43°26' E 004°54'0 0.0
2015-Jan-31 07:30N 43°26' E 004°54'0 0.0
2015-Jan-31 06:33N 43°26' E 004°54'0 0.0
2015-Jan-31 05:33N 43°26' E 004°54'0 0.0
2015-Jan-31 04:30N 43°26' E 004°54'0 0.0
2015-Jan-31 03:30N 43°26' E 004°54'0 0.0
2015-Jan-31 02:30N 43°26' E 004°54'0 0.0
2015-Jan-31 01:33N 43°26' E 004°54'0 0.0
2015-Jan-31 00:33N 43°26' E 004°54'0 0.0
2015-Jan-30 23:30N 43°26' E 004°54'0 0.0
2015-Jan-30 22:33N 43°26' E 004°54'0 0.0
2015-Jan-30 21:33N 43°26' E 004°54'0 0.0
2015-Jan-30 20:33N 43°26' E 004°54'0 0.0
2015-Jan-30 19:30N 43°26' E 004°54'0 0.0
2015-Jan-30 18:33N 43°26' E 004°54'0 0.0
2015-Jan-30 17:30N 43°26' E 004°54'0 0.0
2015-Jan-30 16:33N 43°26' E 004°54'0 0.0
2015-Jan-30 15:30N 43°26' E 004°54'0 0.0
2015-Jan-30 14:33N 43°26' E 004°54'0 0.0
2015-Jan-30 13:33N 43°26' E 004°54'0 0.0
2015-Jan-30 12:30N 43°26' E 004°54'0 0.0
2015-Jan-30 11:30N 43°26' E 004°54'0 0.0
2015-Jan-30 10:33N 43°26' E 004°54'0 0.0
2015-Jan-30 09:30N 43°26' E 004°54'5 4.8
2015-Jan-30 08:32N 43°24' E 004°60'0 0.0
2015-Jan-30 07:32N 43°24' E 004°60'0 0.0
2015-Jan-30 06:32N 43°24' E 004°60'0 0.0
2015-Jan-30 05:32N 43°24' E 004°60'0 0.0
2015-Jan-30 04:32N 43°24' E 004°60'0 0.0
2015-Jan-30 03:32N 43°24' E 004°60'0 0.0
2015-Jan-30 02:32N 43°24' E 004°60'0 0.0
2015-Jan-30 01:32N 43°24' E 004°60'0 0.0
2015-Jan-30 00:32N 43°24' E 004°60'0 0.0
2015-Jan-29 23:32N 43°24' E 004°60'0 0.0
2015-Jan-29 22:32N 43°24' E 004°60'0 0.0
2015-Jan-29 21:32N 43°24' E 004°60'0 0.0
2015-Jan-29 20:32N 43°24' E 004°60'0 0.0
2015-Jan-29 19:32N 43°24' E 004°60'0 0.0
2015-Jan-29 18:32N 43°24' E 004°60'0 0.0
2015-Jan-29 17:32N 43°24' E 004°60'0 0.0
2015-Jan-29 16:33N 43°24' E 004°60'5 4.9
2015-Jan-29 15:33N 43°19' E 004°59'8 7.8
2015-Jan-29 14:33N 43°11' E 004°58'1212.4
2015-Jan-29 13:32N 43°11' E 004°41'1413.0
2015-Jan-29 12:28N 43°11' E 004°22'1112.2
2015-Jan-29 11:33N 43°10' E 004°06'1411.4
2015-Jan-29 10:22N 43°09' E 003°48'1411.6
2015-Jan-29 09:07N 42°57' E 003°38'711.4
2015-Jan-29 08:28N 42°51' E 003°32'1010.7
2015-Jan-29 07:33N 42°42' E 003°28'9 9.4
2015-Jan-29 06:33N 42°32' E 003°26'9 9.2
2015-Jan-29 05:33N 42°23' E 003°26'1211.8
2015-Jan-29 04:33N 42°11' E 003°27'1212.1
2015-Jan-29 03:33N 41°59' E 003°26'1312.7
2015-Jan-29 02:33N 41°48' E 003°18'1212.2
2015-Jan-29 01:33N 41°39' E 003°07'1312.7
2015-Jan-29 00:33N 41°33' E 002°52'1212.4
2015-Jan-28 23:34N 41°27' E 002°38'1412.5
2015-Jan-28 22:26N 41°20' E 002°21'8 9.5
2015-Jan-28 21:33N 41°18' E 002°10'2 0.1
2015-Jan-27 12:33N 41°20' E 002°10'2 0.6
2015-Jan-27 09:32N 41°18' E 002°11'2 1.8
2015-Jan-27 08:32N 41°17' E 002°12'2 2.6
2015-Jan-27 07:34N 41°17' E 002°16'1111.1
2015-Jan-27 06:34N 41°22' E 002°29'3210.8
2015-Jan-27 03:33N 41°39' E 003°06'1010.3
2015-Jan-27 02:34N 41°45' E 003°16'1010.5
2015-Jan-27 01:33N 41°55' E 003°23'1010.3
2015-Jan-27 00:33N 42°05' E 003°26'1110.9
2015-Jan-26 23:33N 42°16' E 003°26'1110.9
2015-Jan-26 22:33N 42°27' E 003°26'1110.8
2015-Jan-26 21:33N 42°37' E 003°26'1110.6
2015-Jan-26 20:33N 42°48' E 003°29'1010.3
2015-Jan-26 19:33N 42°56' E 003°36'9 9.0
2015-Jan-26 18:33N 43°04' E 003°43'9 9.1
2015-Jan-26 17:33N 43°11' E 003°51'9 8.9
2015-Jan-26 16:33N 43°10' E 004°03'9 9.2
2015-Jan-26 15:33N 43°08' E 004°16'1010.2
2015-Jan-26 14:33N 43°07' E 004°29'1211.1
2015-Jan-26 13:27N 43°05' E 004°46'1110.4
2015-Jan-26 12:26N 43°04' E 005°00'5911.7
2015-Jan-26 07:23N 42°56' E 006°21'1212.5
2015-Jan-26 06:23N 42°57' E 006°38'1011.9
2015-Jan-26 05:33N 42°58' E 006°51'1211.6
2015-Jan-26 04:33N 42°59' E 007°07'1211.7
2015-Jan-26 03:33N 43°00' E 007°23'8912.3
2015-Jan-25 20:16N 43°07' E 009°25'  
Track history (hours):
 
Tides and Currents Weather Stations Pressure Air Temp Water Temp Dewpoint Dewpoint Depression Visibility Wind Speed Wind Dir Waves Ship Positions

St Solene

Last reported at 2015-Feb-01 20:13 UTC. Time now 2015-Feb-01 21:12 UTC.
Position N 43°01' E 003°07'.

Length 104 m; draft 6.6 m.

Type: Tanker. MMSI: 226302000.

Date/timePositionNaut miles runAvg speedWind from/ knotsBaromVisibWave heightAir tempDewpointWater temp
2015-Feb-01 20:13N 43°01' E 003°07'0 0.0
2015-Feb-01 19:25N 43°01' E 003°07'0 0.0
2015-Feb-01 18:21N 43°01' E 003°07'0 0.0
2015-Feb-01 17:31N 43°01' E 003°07'0 0.0
2015-Feb-01 16:26N 43°01' E 003°07'0 0.0
2015-Feb-01 15:34N 43°01' E 003°07'0 0.0
2015-Feb-01 14:14N 43°01' E 003°07'0 0.0
2015-Feb-01 13:17N 43°01' E 003°07'0 0.0
2015-Feb-01 12:28N 43°01' E 003°07'0 0.0
2015-Feb-01 11:29N 43°01' E 003°07'0 0.0
2015-Feb-01 10:13N 43°01' E 003°07'3 1.5
2015-Feb-01 08:13N 42°60' E 003°11'6910.2
2015-Feb-01 01:27N 43°10' E 004°44'910.1
2015-Feb-01 00:31N 43°11' E 004°57'8 8.1
2015-Jan-31 23:34N 43°19' E 004°59'8 7.9
2015-Jan-31 22:33N 43°26' E 004°54'0 0.1
2015-Jan-31 21:33N 43°26' E 004°54'0 0.0
2015-Jan-31 20:33N 43°26' E 004°54'0 0.0
2015-Jan-31 19:33N 43°26' E 004°54'0 0.0
2015-Jan-31 18:33N 43°26' E 004°54'0 0.0
2015-Jan-31 17:30N 43°26' E 004°54'0 0.0
2015-Jan-31 16:33N 43°26' E 004°54'0 0.0
2015-Jan-31 15:30N 43°26' E 004°54'0 0.0
2015-Jan-31 14:33N 43°26' E 004°54'0 0.0
2015-Jan-31 13:33N 43°26' E 004°54'0 0.0
2015-Jan-31 12:33N 43°26' E 004°54'0 0.0
2015-Jan-31 11:33N 43°26' E 004°54'0 0.0
2015-Jan-31 10:33N 43°26' E 004°54'0 0.0
2015-Jan-31 09:33N 43°26' E 004°54'0 0.0
2015-Jan-31 08:30N 43°26' E 004°54'0 0.0
2015-Jan-31 07:30N 43°26' E 004°54'0 0.0
2015-Jan-31 06:33N 43°26' E 004°54'0 0.0
2015-Jan-31 05:33N 43°26' E 004°54'0 0.0
2015-Jan-31 04:30N 43°26' E 004°54'0 0.0
2015-Jan-31 03:30N 43°26' E 004°54'0 0.0
2015-Jan-31 02:30N 43°26' E 004°54'0 0.0
2015-Jan-31 01:33N 43°26' E 004°54'0 0.0
2015-Jan-31 00:33N 43°26' E 004°54'0 0.0
2015-Jan-30 23:30N 43°26' E 004°54'0 0.0
2015-Jan-30 22:33N 43°26' E 004°54'0 0.0
2015-Jan-30 21:33N 43°26' E 004°54'0 0.0
2015-Jan-30 20:33N 43°26' E 004°54'0 0.0
2015-Jan-30 19:30N 43°26' E 004°54'0 0.0
2015-Jan-30 18:33N 43°26' E 004°54'0 0.0
2015-Jan-30 17:30N 43°26' E 004°54'0 0.0
2015-Jan-30 16:33N 43°26' E 004°54'0 0.0
2015-Jan-30 15:30N 43°26' E 004°54'0 0.0
2015-Jan-30 14:33N 43°26' E 004°54'0 0.0
2015-Jan-30 13:33N 43°26' E 004°54'0 0.0
2015-Jan-30 12:30N 43°26' E 004°54'0 0.0
2015-Jan-30 11:30N 43°26' E 004°54'0 0.0
2015-Jan-30 10:33N 43°26' E 004°54'0 0.0
2015-Jan-30 09:30N 43°26' E 004°54'5 4.8
2015-Jan-30 08:32N 43°24' E 004°60'0 0.0
2015-Jan-30 07:32N 43°24' E 004°60'0 0.0
2015-Jan-30 06:32N 43°24' E 004°60'0 0.0
2015-Jan-30 05:32N 43°24' E 004°60'0 0.0
2015-Jan-30 04:32N 43°24' E 004°60'0 0.0
2015-Jan-30 03:32N 43°24' E 004°60'0 0.0
2015-Jan-30 02:32N 43°24' E 004°60'0 0.0
2015-Jan-30 01:32N 43°24' E 004°60'0 0.0
2015-Jan-30 00:32N 43°24' E 004°60'0 0.0
2015-Jan-29 23:32N 43°24' E 004°60'0 0.0
2015-Jan-29 22:32N 43°24' E 004°60'0 0.0
2015-Jan-29 21:32N 43°24' E 004°60'0 0.0
2015-Jan-29 20:32N 43°24' E 004°60'0 0.0
2015-Jan-29 19:32N 43°24' E 004°60'0 0.0
2015-Jan-29 18:32N 43°24' E 004°60'0 0.0
2015-Jan-29 17:32N 43°24' E 004°60'0 0.0
2015-Jan-29 16:33N 43°24' E 004°60'5 4.9
2015-Jan-29 15:33N 43°19' E 004°59'8 7.8
2015-Jan-29 14:33N 43°11' E 004°58'1212.4
2015-Jan-29 13:32N 43°11' E 004°41'1413.0
2015-Jan-29 12:28N 43°11' E 004°22'1112.2
2015-Jan-29 11:33N 43°10' E 004°06'1411.4
2015-Jan-29 10:22N 43°09' E 003°48'1411.6
2015-Jan-29 09:07N 42°57' E 003°38'711.4
2015-Jan-29 08:28N 42°51' E 003°32'1010.7
2015-Jan-29 07:33N 42°42' E 003°28'9 9.4
2015-Jan-29 06:33N 42°32' E 003°26'9 9.2
2015-Jan-29 05:33N 42°23' E 003°26'1211.8
2015-Jan-29 04:33N 42°11' E 003°27'1212.1
2015-Jan-29 03:33N 41°59' E 003°26'1312.7
2015-Jan-29 02:33N 41°48' E 003°18'1212.2
2015-Jan-29 01:33N 41°39' E 003°07'1312.7
2015-Jan-29 00:33N 41°33' E 002°52'1212.4
2015-Jan-28 23:34N 41°27' E 002°38'1412.5
2015-Jan-28 22:26N 41°20' E 002°21'8 9.5
2015-Jan-28 21:33N 41°18' E 002°10'2 0.1
2015-Jan-27 12:33N 41°20' E 002°10'2 0.6
2015-Jan-27 09:32N 41°18' E 002°11'2 1.8
2015-Jan-27 08:32N 41°17' E 002°12'2 2.6
2015-Jan-27 07:34N 41°17' E 002°16'1111.1
2015-Jan-27 06:34N 41°22' E 002°29'3210.8
2015-Jan-27 03:33N 41°39' E 003°06'1010.3
2015-Jan-27 02:34N 41°45' E 003°16'1010.5
2015-Jan-27 01:33N 41°55' E 003°23'1010.3
2015-Jan-27 00:33N 42°05' E 003°26'1110.9
2015-Jan-26 23:33N 42°16' E 003°26'1110.9
2015-Jan-26 22:33N 42°27' E 003°26'1110.8
2015-Jan-26 21:33N 42°37' E 003°26'1110.6
2015-Jan-26 20:33N 42°48' E 003°29'1010.3
2015-Jan-26 19:33N 42°56' E 003°36'9 9.0
2015-Jan-26 18:33N 43°04' E 003°43'9 9.1
2015-Jan-26 17:33N 43°11' E 003°51'9 8.9
2015-Jan-26 16:33N 43°10' E 004°03'9 9.2
2015-Jan-26 15:33N 43°08' E 004°16'1010.2
2015-Jan-26 14:33N 43°07' E 004°29'1211.1
2015-Jan-26 13:27N 43°05' E 004°46'1110.4
2015-Jan-26 12:26N 43°04' E 005°00'5911.7
2015-Jan-26 07:23N 42°56' E 006°21'1212.5
2015-Jan-26 06:23N 42°57' E 006°38'1011.9
2015-Jan-26 05:33N 42°58' E 006°51'1211.6
2015-Jan-26 04:33N 42°59' E 007°07'1211.7
2015-Jan-26 03:33N 43°00' E 007°23'8912.3
2015-Jan-25 20:16N 43°07' E 009°25'  

Dump ship's entire track history